createdAt,value
2019-05-06T00:00:55.348Z,7.53
2019-05-06T00:05:46.324Z,7.43
2019-05-06T00:10:48.014Z,7.41
2019-05-06T00:15:49.622Z,7.35
2019-05-06T00:20:51.274Z,7.35
2019-05-06T00:26:13.653Z,7.34
2019-05-06T00:31:17.160Z,7.30
2019-05-06T00:36:18.799Z,7.30
2019-05-06T00:41:25.127Z,7.27
2019-05-06T00:46:26.936Z,7.21
2019-05-06T00:51:28.627Z,7.11
2019-05-06T01:01:30.245Z,7.13
2019-05-06T01:06:33.866Z,7.13
2019-05-06T01:11:35.498Z,6.98
2019-05-06T01:16:37.403Z,6.80
2019-05-06T01:21:39.077Z,6.85
2019-05-06T01:26:40.759Z,6.95
2019-05-06T01:31:43.791Z,7.03
2019-05-06T01:36:46.615Z,7.05
2019-05-06T01:42:04.412Z,7.13
2019-05-06T01:47:06.184Z,7.21
2019-05-06T01:52:07.939Z,7.30
2019-05-06T01:57:09.513Z,7.36
2019-05-06T02:02:11.191Z,7.43
2019-05-06T02:07:14.458Z,7.48
2019-05-06T02:12:16.248Z,7.51
2019-05-06T02:17:17.799Z,7.46
2019-05-06T02:22:34.607Z,7.40
2019-05-06T02:27:36.250Z,7.41
2019-05-06T02:32:50.051Z,7.38
2019-05-06T02:37:51.597Z,7.39
2019-05-06T02:42:54.751Z,7.39
2019-05-06T02:48:06.224Z,7.41
2019-05-06T02:53:07.887Z,7.38
2019-05-06T02:58:09.544Z,7.31
2019-05-06T03:03:13.983Z,7.38
2019-05-06T03:08:14.767Z,7.40
2019-05-06T03:13:16.401Z,7.35
2019-05-06T03:18:18.059Z,7.29
2019-05-06T03:23:23.719Z,7.24
2019-05-06T03:28:24.899Z,7.18
2019-05-06T03:33:47.659Z,7.13
2019-05-06T03:38:33.225Z,7.11
2019-05-06T03:43:34.066Z,7.10
2019-05-06T03:48:38.396Z,7.07
2019-05-06T03:53:43.153Z,7.04
2019-05-06T03:58:44.078Z,7.03
2019-05-06T04:03:51.564Z,7.06
2019-05-06T04:08:49.358Z,7.07
2019-05-06T04:13:53.465Z,7.09
2019-05-06T04:19:09.444Z,6.97
2019-05-06T04:24:27.763Z,6.92
2019-05-06T04:29:29.423Z,6.97
2019-05-06T04:34:33.300Z,7.00
2019-05-06T04:39:34.754Z,6.99
2019-05-06T04:44:36.283Z,6.95
2019-05-06T04:49:37.861Z,6.94
2019-05-06T04:54:39.481Z,6.93
2019-05-06T04:59:43.221Z,6.87
2019-05-06T05:04:44.685Z,6.80
2019-05-06T05:09:46.562Z,6.78
2019-05-06T05:14:55.579Z,6.78
2019-05-06T05:19:57.230Z,6.81
2019-05-06T05:24:58.781Z,6.80
2019-05-06T05:30:01.962Z,6.82
2019-05-06T05:35:04.342Z,6.85
2019-05-06T05:40:06.117Z,6.88
2019-05-06T05:45:08.699Z,6.90
2019-05-06T05:50:16.807Z,6.94
2019-05-06T05:55:18.470Z,6.98
2019-05-06T06:00:22.476Z,7.06
2019-05-06T06:05:24.177Z,7.08
2019-05-06T06:10:52.465Z,7.10
2019-05-06T06:16:19.701Z,7.18
2019-05-06T06:21:29.488Z,7.28
2019-05-06T06:26:32.475Z,7.28
2019-05-06T06:31:40.315Z,7.38
2019-05-06T06:36:49.140Z,7.43
2019-05-06T06:41:51.918Z,7.51
2019-05-06T06:46:53.732Z,7.55
2019-05-06T06:51:55.495Z,7.57
2019-05-06T06:57:21.861Z,7.63
2019-05-06T07:02:43.254Z,7.70
2019-05-06T07:07:47.845Z,7.79
2019-05-06T07:12:48.977Z,7.89
2019-05-06T07:17:52.417Z,7.95
2019-05-06T07:22:54.021Z,7.99
2019-05-06T07:27:55.616Z,7.98
2019-05-06T07:33:00.427Z,7.98
2019-05-06T07:38:02.351Z,8.00
2019-05-06T07:43:23.904Z,8.17
2019-05-06T07:48:25.997Z,8.36
2019-05-06T07:53:27.679Z,8.35
2019-05-06T07:58:29.378Z,8.47
2019-05-06T08:03:32.943Z,8.64
2019-05-06T08:08:34.594Z,8.61
2019-05-06T08:13:36.223Z,8.51
2019-05-06T08:18:37.787Z,8.42
2019-05-06T08:23:44.148Z,8.36
2019-05-06T08:28:45.687Z,8.39
2019-05-06T08:33:47.359Z,8.54
2019-05-06T08:38:55.577Z,8.75
2019-05-06T08:43:58.415Z,8.91
2019-05-06T08:49:00.074Z,8.84
2019-05-06T08:54:05.921Z,8.72
2019-05-06T08:59:07.644Z,8.61
2019-05-06T09:04:12.802Z,8.49
2019-05-06T09:09:13.252Z,8.46
2019-05-06T09:14:14.899Z,8.54
2019-05-06T09:19:16.472Z,8.65
2019-05-06T09:24:18.169Z,8.90
2019-05-06T09:29:32.797Z,8.88
2019-05-06T09:34:43.658Z,8.80
2019-05-06T09:39:45.847Z,8.79
2019-05-06T09:44:50.494Z,8.78
2019-05-06T09:49:53.129Z,8.78
2019-05-06T09:55:23.361Z,8.78
2019-05-06T10:00:25.074Z,8.92
2019-05-06T10:05:26.776Z,9.31
2019-05-06T10:10:28.354Z,9.52
2019-05-06T10:15:32.407Z,9.47
2019-05-06T10:20:38.172Z,9.41
2019-05-06T10:25:39.966Z,9.34
2019-05-06T10:30:41.581Z,9.25
2019-05-06T10:35:43.322Z,9.19
2019-05-06T10:41:00.877Z,9.16
2019-05-06T10:45:52.510Z,9.17
2019-05-06T10:50:58.170Z,9.20
2019-05-06T10:56:06.438Z,9.27
2019-05-06T11:01:23.192Z,9.35
2019-05-06T11:06:24.991Z,9.44
2019-05-06T11:11:36.998Z,9.58
2019-05-06T11:16:33.132Z,9.70
2019-05-06T11:21:34.574Z,9.88
2019-05-06T11:26:36.258Z,9.96
2019-05-06T11:31:57.488Z,9.98
2019-05-06T11:37:18.717Z,10.03
2019-05-06T11:42:28.908Z,10.13
2019-05-06T11:47:23.888Z,10.36
2019-05-06T11:52:25.724Z,10.67
2019-05-06T11:57:27.302Z,10.63
2019-05-06T12:02:28.871Z,10.59
2019-05-06T12:07:33.037Z,11.02
2019-05-06T12:12:34.116Z,11.73
2019-05-06T12:17:35.797Z,11.32
2019-05-06T12:22:37.502Z,11.07
2019-05-06T12:27:45.185Z,10.96
2019-05-06T12:32:53.666Z,10.82
2019-05-06T12:37:57.473Z,10.65
2019-05-06T12:43:18.856Z,10.61
2019-05-06T12:48:24.406Z,10.53
2019-05-06T12:53:25.988Z,10.51
2019-05-06T12:58:27.732Z,10.61
2019-05-06T13:03:31.815Z,10.86
2019-05-06T13:08:52.951Z,10.77
2019-05-06T13:13:36.436Z,10.66
2019-05-06T13:18:38.196Z,10.53
2019-05-06T13:23:44.018Z,10.39
2019-05-06T13:28:50.227Z,10.36
2019-05-06T13:33:59.204Z,10.33
2019-05-06T13:39:13.498Z,10.36
2019-05-06T13:44:15.067Z,10.41
2019-05-06T13:49:25.210Z,10.38
2019-05-06T13:54:26.887Z,10.35
2019-05-06T13:59:31.002Z,10.38
2019-05-06T14:04:32.870Z,10.40
2019-05-06T14:09:39.956Z,10.48
2019-05-06T14:14:38.060Z,10.58
2019-05-06T14:19:42.613Z,10.74
2019-05-06T14:24:51.967Z,11.18
2019-05-06T14:29:58.085Z,12.01
2019-05-06T14:34:59.735Z,12.30
2019-05-06T14:40:03.532Z,12.67
2019-05-06T14:45:05.317Z,12.82
2019-05-06T14:50:07.088Z,12.26
2019-05-06T14:55:22.576Z,12.86
2019-05-06T15:00:24.042Z,12.63
2019-05-06T15:05:25.747Z,12.01
2019-05-06T15:10:27.321Z,11.56
2019-05-06T15:15:29.061Z,11.25
2019-05-06T15:20:34.100Z,11.02
2019-05-06T15:25:34.227Z,10.90
2019-05-06T15:30:45.572Z,10.81
2019-05-06T15:36:15.500Z,10.78
2019-05-06T15:41:17.032Z,10.84
2019-05-06T15:46:18.597Z,11.01
2019-05-06T15:51:33.450Z,11.36
2019-05-06T15:56:35.127Z,11.85
2019-05-06T16:01:36.699Z,12.01
2019-05-06T16:06:38.261Z,11.80
2019-05-06T16:11:41.879Z,11.76
2019-05-06T16:16:43.554Z,11.80
2019-05-06T16:21:45.391Z,11.63
2019-05-06T16:26:47.189Z,11.55
2019-05-06T16:31:48.876Z,11.45
2019-05-06T16:36:50.476Z,11.37
2019-05-06T16:41:52.336Z,11.39
2019-05-06T16:46:54.164Z,11.41
2019-05-06T16:51:55.876Z,11.35
2019-05-06T16:57:04.505Z,11.30
2019-05-06T17:02:13.985Z,11.26
2019-05-06T17:07:15.811Z,11.20
2019-05-06T17:12:17.525Z,11.13
2019-05-06T17:17:19.131Z,11.14
2019-05-06T17:22:22.823Z,11.91
2019-05-06T17:27:24.408Z,11.54
2019-05-06T17:32:38.038Z,11.41
2019-05-06T17:37:58.005Z,11.84
2019-05-06T17:42:59.567Z,11.30
2019-05-06T17:48:07.133Z,10.96
2019-05-06T17:53:08.659Z,10.80
2019-05-06T17:58:10.245Z,10.66
2019-05-06T18:03:11.862Z,10.70
2019-05-06T18:08:13.449Z,10.77
2019-05-06T18:13:15.018Z,10.66
2019-05-06T18:18:16.699Z,10.58
2019-05-06T18:23:18.270Z,10.49
2019-05-06T18:28:19.872Z,10.40
2019-05-06T18:33:22.553Z,10.37
2019-05-06T18:38:24.441Z,10.35
2019-05-06T18:43:26.008Z,10.30
2019-05-06T18:48:31.169Z,10.25
2019-05-06T18:53:33.213Z,10.16
2019-05-06T18:58:34.794Z,10.13
2019-05-06T19:03:52.543Z,10.09
2019-05-06T19:09:02.634Z,10.00
2019-05-06T19:14:04.305Z,9.92
2019-05-06T19:19:06.142Z,9.88
2019-05-06T19:24:08.060Z,9.82
2019-05-06T19:29:09.625Z,9.78
2019-05-06T19:34:12.906Z,9.71
2019-05-06T19:39:14.847Z,9.65
2019-05-06T19:44:16.607Z,9.63
2019-05-06T19:49:18.271Z,9.58
2019-05-06T19:54:19.845Z,9.56
2019-05-06T19:59:21.538Z,9.54
2019-05-06T20:04:23.829Z,9.49
2019-05-06T20:09:45.184Z,9.49
2019-05-06T20:14:46.878Z,9.50
2019-05-06T20:19:48.478Z,9.44
2019-05-06T20:24:52.064Z,9.42
2019-05-06T20:29:53.704Z,9.38
2019-05-06T20:34:55.323Z,9.40
2019-05-06T20:39:57.001Z,9.37
2019-05-06T20:44:58.691Z,9.34
2019-05-06T20:50:02.378Z,9.27
2019-05-06T20:55:12.750Z,9.21
2019-05-06T21:00:08.144Z,9.19
2019-05-06T21:05:13.671Z,9.20
2019-05-06T21:10:15.161Z,9.20
2019-05-06T21:15:17.310Z,9.14
2019-05-06T21:20:18.986Z,9.13
2019-05-06T21:25:22.623Z,9.11
2019-05-06T21:30:24.174Z,9.10
2019-05-06T21:35:25.750Z,9.13
2019-05-06T21:40:27.307Z,9.19
2019-05-06T21:45:28.995Z,9.23
2019-05-06T21:50:32.865Z,9.22
2019-05-06T21:55:34.002Z,9.18
2019-05-06T22:00:48.858Z,9.11
2019-05-06T22:05:54.276Z,8.98
2019-05-06T22:10:54.038Z,8.94
2019-05-06T22:15:55.727Z,8.87
2019-05-06T22:21:17.992Z,8.76
2019-05-06T22:26:19.729Z,8.74
2019-05-06T22:31:23.833Z,8.68
2019-05-06T22:36:25.227Z,8.60
2019-05-06T22:41:26.915Z,8.52
2019-05-06T22:46:28.478Z,8.48
2019-05-06T22:51:32.240Z,8.52
2019-05-06T22:56:33.781Z,8.48
2019-05-06T23:01:47.199Z,8.42
2019-05-06T23:06:48.878Z,8.35
2019-05-06T23:11:50.444Z,8.28
2019-05-06T23:16:52.232Z,8.26
2019-05-06T23:21:53.953Z,8.21
2019-05-06T23:26:55.740Z,8.12
2019-05-06T23:31:57.429Z,8.12
2019-05-06T23:37:19.157Z,8.06
2019-05-06T23:42:58.228Z,8.04
2019-05-06T23:48:36.971Z,8.03
2019-05-06T23:54:15.688Z,8.00
2019-05-06T23:59:17.492Z,7.98
